Time;durP1;ratioP1;P1;durP2;ratioP2;P2;SDS_P1;SDS_P2;PMS_P1;PMS_P2;Temp;Humidity;BMP_temperature;BMP_pressure;BME280_temperature;BME280_humidity;BME280_pressure;Samples;Min_cycle;Max_cycle;Signal;HPM_P1;HPM_P2
2023/09/12 00:00:07;;;;;;;605.70;569.17;;;18.60;99.90;;;;;;5053605;28;20464;-72
2023/09/12 00:02:34;;;;;;;605.00;568.10;;;18.60;99.90;;;;;;5054799;28;20824;-72
2023/09/12 00:05:01;;;;;;;568.47;535.27;;;18.60;99.90;;;;;;5053704;28;20475;-71
2023/09/12 00:07:28;;;;;;;526.47;496.17;;;18.60;99.90;;;;;;5053873;28;20501;-71
2023/09/12 00:09:56;;;;;;;466.00;440.77;;;18.70;99.90;;;;;;5053628;28;20813;-71
2023/09/12 00:12:25;;;;;;;413.90;393.43;;;18.70;99.90;;;;;;5054911;28;20445;-71
2023/09/12 00:14:51;;;;;;;400.43;380.83;;;18.80;99.90;;;;;;5053671;28;20452;-71
2023/09/12 00:17:18;;;;;;;395.00;375.33;;;18.80;99.90;;;;;;5053614;28;20934;-70
2023/09/12 00:19:45;;;;;;;390.53;371.50;;;18.80;99.90;;;;;;5053262;28;20456;-71
2023/09/12 00:22:12;;;;;;;401.30;381.43;;;18.90;99.90;;;;;;5054660;28;20544;-70
2023/09/12 00:24:39;;;;;;;354.50;338.30;;;18.90;99.90;;;;;;5053360;28;21007;-71
2023/09/12 00:27:07;;;;;;;409.97;389.63;;;19.00;99.90;;;;;;5053596;28;20818;-71
2023/09/12 00:29:34;;;;;;;429.80;407.50;;;18.90;99.90;;;;;;5053330;28;20454;-71
2023/09/12 00:32:01;;;;;;;440.37;417.93;;;18.90;99.90;;;;;;5054166;28;20530;-71
2023/09/12 00:34:28;;;;;;;433.13;411.23;;;18.90;99.90;;;;;;5053414;28;20460;-71
2023/09/12 00:36:54;;;;;;;416.50;395.90;;;18.90;99.90;;;;;;5053507;28;20451;-70
2023/09/12 00:39:21;;;;;;;505.17;477.97;;;19.00;99.90;;;;;;5052911;28;20460;-72
2023/09/12 00:41:48;;;;;;;541.03;510.83;;;18.90;99.90;;;;;;5053855;28;20464;-71
2023/09/12 00:44:16;;;;;;;576.80;543.90;;;18.80;99.90;;;;;;5053610;28;20486;-72
2023/09/12 00:46:45;;;;;;;624.90;588.50;;;18.70;99.90;;;;;;5052909;28;20959;-72
2023/09/12 00:49:14;;;;;;;649.43;611.00;;;18.70;99.90;;;;;;5052780;28;20455;-72
2023/09/12 00:51:41;;;;;;;691.07;649.57;;;18.60;99.90;;;;;;5053842;28;20472;-72
2023/09/12 00:54:08;;;;;;;691.67;650.63;;;18.50;99.90;;;;;;5053424;28;20446;-71
2023/09/12 00:56:36;;;;;;;746.60;700.77;;;18.40;99.90;;;;;;5052879;28;20448;-71
2023/09/12 00:59:03;;;;;;;758.80;711.67;;;18.40;99.90;;;;;;5052336;28;20448;-71
2023/09/12 01:01:33;;;;;;;737.43;691.97;;;18.30;99.90;;;;;;5053261;28;20448;-71
2023/09/12 01:04:02;;;;;;;801.53;751.87;;;18.30;99.90;;;;;;5052730;28;20461;-71
2023/09/12 01:06:31;;;;;;;842.47;790.63;;;18.30;99.90;;;;;;5052585;28;20575;-71
2023/09/12 01:08:58;;;;;;;867.80;814.53;;;18.20;99.90;;;;;;5052336;28;20460;-71
2023/09/12 01:11:25;;;;;;;862.23;808.40;;;18.20;99.90;;;;;;5053401;28;20464;-72
2023/09/12 01:13:52;;;;;;;874.60;819.90;;;18.10;99.90;;;;;;5053253;28;20457;-71
2023/09/12 01:16:19;;;;;;;863.60;809.27;;;18.10;99.90;;;;;;5052801;28;20460;-72
2023/09/12 01:18:47;;;;;;;845.30;792.53;;;18.10;99.90;;;;;;5052678;28;20459;-71
2023/09/12 01:21:42;;;;;;;848.23;795.10;;;18.10;99.90;;;;;;5052943;28;20461;-71
2023/09/12 01:24:39;;;;;;;822.37;768.97;;;18.20;99.90;;;;;;5052882;28;20436;-72
2023/09/12 01:27:28;;;;;;;805.70;754.17;;;18.30;99.90;;;;;;5052704;28;20444;-71
2023/09/12 01:29:58;;;;;;;819.40;768.20;;;18.30;99.90;;;;;;5052241;28;20446;-71
2023/09/12 01:32:25;;;;;;;779.57;731.97;;;18.30;99.90;;;;;;5053306;28;20928;-71
2023/09/12 01:34:52;;;;;;;730.70;687.20;;;18.40;99.90;;;;;;5052752;28;20456;-71
2023/09/12 01:37:18;;;;;;;678.20;639.03;;;18.40;99.90;;;;;;5052491;28;20449;-70
2023/09/12 01:39:45;;;;;;;650.33;612.63;;;18.40;99.90;;;;;;5051662;28;20452;-71
2023/09/12 01:42:16;;;;;;;665.87;627.50;;;18.50;99.90;;;;;;5052833;28;20960;-72
2023/09/12 01:44:46;;;;;;;727.27;682.37;;;18.50;99.90;;;;;;5051887;28;20541;-71
2023/09/12 01:47:14;;;;;;;757.80;711.40;;;18.40;99.90;;;;;;5052007;28;20465;-71
2023/09/12 01:49:43;;;;;;;776.10;728.90;;;18.40;99.90;;;;;;5052094;28;20460;-71
2023/09/12 01:52:11;;;;;;;794.67;747.20;;;18.30;99.90;;;;;;5053352;28;20453;-71
2023/09/12 01:54:39;;;;;;;818.50;767.60;;;18.40;99.90;;;;;;5052158;28;20474;-71
2023/09/12 01:57:06;;;;;;;836.30;783.13;;;18.30;99.90;;;;;;5052241;28;20482;-71
2023/09/12 01:59:33;;;;;;;834.40;782.13;;;18.30;99.90;;;;;;5051629;28;20461;-71
2023/09/12 02:02:02;;;;;;;843.70;790.10;;;18.30;99.90;;;;;;5052916;28;20464;-71
2023/09/12 02:04:28;;;;;;;862.10;807.80;;;18.30;99.90;;;;;;5052650;28;20463;-71
2023/09/12 02:06:55;;;;;;;860.80;805.63;;;18.20;99.90;;;;;;5052414;28;20489;-71
2023/09/12 02:09:22;;;;;;;902.47;840.47;;;18.20;99.90;;;;;;5052146;28;20452;-71
2023/09/12 02:11:50;;;;;;;917.97;854.33;;;18.20;99.90;;;;;;5054531;28;20923;-72
2023/09/12 02:14:17;;;;;;;930.93;865.73;;;18.10;99.90;;;;;;5055965;28;20547;-71
2023/09/12 02:16:44;;;;;;;937.50;870.53;;;18.20;99.90;;;;;;5056137;28;20449;-71
2023/09/12 02:19:13;;;;;;;943.60;876.90;;;18.10;99.90;;;;;;5055667;28;20452;-71
2023/09/12 02:21:39;;;;;;;945.83;879.23;;;18.10;99.90;;;;;;5056540;28;20458;-71
2023/09/12 02:24:07;;;;;;;938.47;872.97;;;18.10;99.90;;;;;;5055963;28;20459;-72
2023/09/12 02:26:36;;;;;;;952.57;884.70;;;18.10;99.90;;;;;;5055682;28;20504;-71
2023/09/12 02:29:03;;;;;;;959.50;892.13;;;18.10;99.90;;;;;;5055738;28;20453;-71
2023/09/12 02:31:30;;;;;;;963.50;894.73;;;18.20;99.90;;;;;;5056102;28;20502;-72
2023/09/12 02:33:57;;;;;;;969.93;900.73;;;18.10;99.90;;;;;;5055809;28;20446;-71
2023/09/12 02:36:25;;;;;;;970.57;899.93;;;18.10;99.90;;;;;;5055769;28;20445;-71
2023/09/12 02:38:52;;;;;;;981.50;908.87;;;18.10;99.90;;;;;;5055511;28;20451;-71
2023/09/12 02:41:19;;;;;;;971.93;899.90;;;18.00;99.90;;;;;;5055736;28;20449;-71
2023/09/12 02:43:45;;;;;;;970.10;898.60;;;18.10;99.90;;;;;;5055829;28;20817;-71
2023/09/12 02:46:12;;;;;;;965.57;894.30;;;18.00;99.90;;;;;;5055266;28;20479;-71
2023/09/12 02:48:39;;;;;;;968.47;897.07;;;18.00;99.90;;;;;;5054779;28;20540;-71
2023/09/12 02:51:06;;;;;;;964.67;894.03;;;18.10;99.90;;;;;;5055889;28;20448;-71
2023/09/12 02:53:34;;;;;;;966.57;893.57;;;18.00;99.90;;;;;;5055287;28;20459;-71
2023/09/12 02:56:01;;;;;;;970.97;894.03;;;17.90;99.90;;;;;;5055184;28;20487;-71
2023/09/12 02:58:28;;;;;;;977.97;903.23;;;17.90;99.90;;;;;;5054872;28;20451;-71
2023/09/12 03:00:55;;;;;;;972.30;899.00;;;17.90;99.90;;;;;;5055540;28;20447;-71
2023/09/12 03:03:22;;;;;;;973.47;898.77;;;17.80;99.90;;;;;;5055683;28;20456;-71
2023/09/12 03:05:48;;;;;;;985.70;907.60;;;17.80;99.90;;;;;;5055093;28;20586;-72
2023/09/12 03:08:15;;;;;;;975.73;896.63;;;17.80;99.90;;;;;;5054968;28;20452;-71
2023/09/12 03:10:43;;;;;;;976.57;897.47;;;17.80;99.90;;;;;;5054741;28;20968;-71
2023/09/12 03:13:13;;;;;;;967.43;890.43;;;17.70;99.90;;;;;;5055223;28;20539;-71
2023/09/12 03:15:39;;;;;;;956.63;880.33;;;17.70;99.90;;;;;;5054958;28;20455;-71
2023/09/12 03:18:10;;;;;;;970.47;893.63;;;17.60;99.90;;;;;;5054818;28;20799;-71
2023/09/12 03:20:39;;;;;;;971.73;890.73;;;17.60;99.90;;;;;;5054752;28;20452;-71
2023/09/12 03:23:06;;;;;;;960.60;881.10;;;17.60;99.90;;;;;;5054805;28;20457;-71
2023/09/12 03:25:37;;;;;;;943.73;866.07;;;17.60;99.90;;;;;;5054620;28;20478;-71
2023/09/12 03:28:07;;;;;;;956.33;878.03;;;17.60;99.90;;;;;;5054590;28;20497;-72
2023/09/12 03:30:34;;;;;;;953.50;873.50;;;17.60;99.90;;;;;;5054717;28;20531;-71
2023/09/12 03:33:01;;;;;;;962.07;879.67;;;17.60;99.90;;;;;;5055234;28;20449;-71
2023/09/12 03:35:30;;;;;;;948.43;865.77;;;17.60;99.90;;;;;;5054403;28;20448;-71
2023/09/12 03:37:56;;;;;;;947.97;865.27;;;17.60;99.90;;;;;;5054248;28;20454;-71
2023/09/12 03:40:23;;;;;;;938.57;856.03;;;17.70;99.90;;;;;;5053731;28;21123;-71
2023/09/12 03:42:50;;;;;;;941.80;857.50;;;17.70;99.90;;;;;;5055088;28;20449;-71
2023/09/12 03:45:18;;;;;;;926.57;841.20;;;17.70;99.90;;;;;;5054533;28;20452;-71
2023/09/12 03:47:46;;;;;;;914.27;830.40;;;17.70;99.90;;;;;;5054115;28;20453;-71
2023/09/12 03:50:13;;;;;;;936.90;853.77;;;17.70;99.90;;;;;;5053979;28;20534;-71
2023/09/12 03:52:41;;;;;;;926.53;845.80;;;17.70;99.90;;;;;;5054701;28;20518;-71
2023/09/12 03:55:08;;;;;;;930.87;849.77;;;17.70;99.90;;;;;;5054278;28;20536;-71
2023/09/12 03:57:35;;;;;;;932.03;851.70;;;17.70;99.90;;;;;;5054041;28;20445;-71
2023/09/12 04:00:05;;;;;;;931.20;853.27;;;17.80;99.90;;;;;;5053780;28;20456;-71
2023/09/12 04:02:33;;;;;;;919.30;842.70;;;17.80;99.90;;;;;;5054853;28;20437;-71
2023/09/12 04:05:00;;;;;;;904.67;829.97;;;17.80;99.90;;;;;;5053820;28;20447;-71
2023/09/12 04:07:27;;;;;;;919.77;845.90;;;17.90;99.90;;;;;;5053998;28;20487;-71
2023/09/12 04:09:54;;;;;;;919.07;846.47;;;18.00;99.90;;;;;;5053570;28;20467;-71
2023/09/12 04:12:21;;;;;;;917.43;844.93;;;18.00;99.90;;;;;;5054676;28;20450;-71
2023/09/12 04:14:50;;;;;;;914.77;844.80;;;18.10;99.90;;;;;;5053688;28;20545;-71
2023/09/12 04:17:16;;;;;;;903.30;835.17;;;18.10;99.90;;;;;;5053776;28;20445;-71
2023/09/12 04:19:44;;;;;;;884.20;817.33;;;18.10;99.90;;;;;;5053382;28;20458;-71
2023/09/12 04:22:11;;;;;;;875.03;808.63;;;18.10;99.90;;;;;;5055039;28;20449;-71
2023/09/12 04:24:38;;;;;;;877.83;811.30;;;18.10;99.90;;;;;;5053654;28;20459;-72
2023/09/12 04:27:05;;;;;;;870.50;805.63;;;18.20;99.90;;;;;;5053640;28;20485;-72
2023/09/12 04:29:34;;;;;;;878.50;813.90;;;18.20;99.90;;;;;;5053259;28;20473;-71
2023/09/12 04:32:03;;;;;;;892.43;825.87;;;18.20;99.90;;;;;;5054039;28;20460;-71
2023/09/12 04:34:30;;;;;;;890.43;826.17;;;18.20;99.90;;;;;;5053123;28;20633;-71
2023/09/12 04:36:58;;;;;;;871.80;806.80;;;18.30;99.90;;;;;;5053591;28;20812;-71
2023/09/12 04:39:25;;;;;;;860.77;800.67;;;18.30;99.90;;;;;;5053178;28;20859;-71
2023/09/12 04:41:52;;;;;;;836.83;777.87;;;18.20;99.90;;;;;;5053758;28;20461;-71
2023/09/12 04:44:18;;;;;;;854.13;792.67;;;18.20;99.90;;;;;;5053627;28;20449;-71
2023/09/12 04:46:46;;;;;;;844.43;781.37;;;18.20;99.90;;;;;;5052981;28;21006;-71
2023/09/12 04:49:12;;;;;;;864.00;798.87;;;18.20;99.90;;;;;;5053118;28;21068;-71
2023/09/12 04:51:39;;;;;;;863.70;797.83;;;18.20;99.90;;;;;;5053883;28;20817;-71
2023/09/12 04:54:07;;;;;;;867.33;800.83;;;18.10;99.90;;;;;;5053256;28;20453;-71
2023/09/12 04:56:34;;;;;;;867.03;799.07;;;18.00;99.90;;;;;;5052672;28;20452;-71
2023/09/12 04:59:01;;;;;;;915.17;841.53;;;18.00;99.90;;;;;;5052084;28;20555;-71
2023/09/12 05:01:28;;;;;;;901.33;825.40;;;17.90;99.90;;;;;;5053569;28;20453;-71
2023/09/12 05:03:55;;;;;;;901.23;823.03;;;17.90;99.90;;;;;;5053083;28;20454;-72
2023/09/12 05:06:22;;;;;;;895.07;815.10;;;17.90;99.90;;;;;;5052804;28;20494;-71
2023/09/12 05:08:49;;;;;;;889.23;809.00;;;17.90;99.90;;;;;;5052555;28;20453;-71
2023/09/12 05:11:17;;;;;;;891.33;810.93;;;18.00;99.90;;;;;;5052762;28;20473;-71
2023/09/12 05:13:44;;;;;;;890.83;809.67;;;18.10;99.90;;;;;;5052685;28;20958;-71
2023/09/12 05:16:11;;;;;;;891.07;811.57;;;18.20;99.90;;;;;;5052575;28;20457;-71
2023/09/12 05:18:38;;;;;;;896.20;817.30;;;18.30;99.90;;;;;;5052305;28;20452;-71
2023/09/12 05:21:05;;;;;;;890.47;812.40;;;18.40;99.90;;;;;;5051834;28;20450;-74
2023/09/12 05:23:32;;;;;;;889.97;813.33;;;18.50;99.90;;;;;;5050325;28;20937;-73
2023/09/12 05:25:59;;;;;;;879.93;804.73;;;18.50;99.90;;;;;;5051713;28;20449;-74
2023/09/12 05:28:27;;;;;;;876.30;801.50;;;18.60;99.90;;;;;;5051825;28;20451;-73
2023/09/12 05:30:54;;;;;;;883.83;810.73;;;18.70;99.90;;;;;;5051950;28;20462;-73
2023/09/12 05:33:20;;;;;;;879.23;810.73;;;18.70;99.90;;;;;;5052124;28;20775;-73
2023/09/12 05:35:47;;;;;;;860.20;796.03;;;18.80;99.90;;;;;;5051391;28;20954;-76
2023/09/12 05:38:14;;;;;;;876.63;812.43;;;18.90;99.90;;;;;;5051846;28;20818;-75
2023/09/12 05:40:41;;;;;;;846.83;789.97;;;18.90;99.90;;;;;;5051648;28;20480;-73
2023/09/12 05:43:08;;;;;;;771.60;718.43;;;18.90;99.90;;;;;;5051952;28;20813;-72
2023/09/12 05:45:36;;;;;;;459.30;430.60;;;19.00;99.90;;;;;;5053446;28;20453;-70
2023/09/12 05:48:03;;;;;;;289.30;273.70;;;19.00;99.90;;;;;;5056019;28;20486;-69
2023/09/12 05:50:30;;;;;;;357.43;340.83;;;18.80;99.90;;;;;;5051008;28;20449;-68
2023/09/12 05:52:57;;;;;;;382.80;365.53;;;18.60;99.90;;;;;;5054720;28;20449;-68
2023/09/12 05:55:24;;;;;;;502.53;477.63;;;18.80;99.90;;;;;;5054361;28;20453;-68
2023/09/12 05:57:52;;;;;;;679.60;643.33;;;18.70;99.90;;;;;;5055044;28;20452;-68
2023/09/12 06:00:19;;;;;;;897.63;838.07;;;18.70;99.90;;;;;;5054961;28;20452;-69
2023/09/12 06:02:47;;;;;;;889.13;828.87;;;18.60;99.90;;;;;;5054936;28;20456;-69
2023/09/12 06:05:14;;;;;;;1026.43;954.73;;;18.60;99.90;;;;;;5054715;28;20460;-70
2023/09/12 06:07:41;;;;;;;1036.03;959.50;;;18.50;99.90;;;;;;5054739;28;20476;-69
2023/09/12 06:10:09;;;;;;;1012.40;939.80;;;18.50;99.90;;;;;;5054396;28;20469;-69
2023/09/12 06:12:37;;;;;;;1023.43;949.63;;;18.50;99.90;;;;;;5055037;28;20458;-71
2023/09/12 06:15:04;;;;;;;1004.93;938.23;;;18.60;99.90;;;;;;5055569;28;20499;-70
2023/09/12 06:17:31;;;;;;;1068.30;991.60;;;18.60;99.90;;;;;;5055736;28;20458;-69
2023/09/12 06:19:59;;;;;;;1120.60;999.90;;;18.60;99.90;;;;;;5055001;28;20463;-70
2023/09/12 06:22:26;;;;;;;1079.33;999.90;;;18.70;99.90;;;;;;5055191;28;20462;-70
2023/09/12 06:24:54;;;;;;;1016.23;951.00;;;18.70;99.90;;;;;;5055089;28;20471;-70
2023/09/12 06:27:21;;;;;;;1043.80;973.53;;;18.70;99.90;;;;;;5054992;28;21046;-70
2023/09/12 06:29:48;;;;;;;1059.40;987.00;;;18.80;99.90;;;;;;5054843;28;20458;-71
2023/09/12 06:32:15;;;;;;;1049.37;978.27;;;18.90;99.90;;;;;;5055322;28;20454;-71
2023/09/12 06:34:41;;;;;;;1031.40;961.97;;;18.90;99.90;;;;;;5054966;28;21010;-71
2023/09/12 06:37:10;;;;;;;1023.97;954.07;;;18.90;99.90;;;;;;5054930;28;20926;-70
2023/09/12 06:39:36;;;;;;;1017.80;950.50;;;18.90;99.90;;;;;;5054767;28;20460;-69
2023/09/12 06:42:04;;;;;;;1019.07;951.57;;;19.00;99.90;;;;;;5055098;28;20444;-71
2023/09/12 06:44:30;;;;;;;1040.17;968.37;;;19.00;99.90;;;;;;5054936;28;20451;-70
2023/09/12 06:46:57;;;;;;;1025.20;954.63;;;19.10;99.90;;;;;;5054756;28;20477;-71
2023/09/12 06:49:24;;;;;;;1059.37;983.37;;;19.10;99.90;;;;;;5054461;28;20512;-70
2023/09/12 06:51:51;;;;;;;1040.93;968.13;;;19.20;99.90;;;;;;5054920;28;20816;-70
2023/09/12 06:54:19;;;;;;;968.43;905.23;;;19.30;99.90;;;;;;5054849;28;20456;-71
2023/09/12 06:56:46;;;;;;;932.63;872.93;;;19.40;99.90;;;;;;5054174;28;20452;-71
2023/09/12 06:59:13;;;;;;;896.53;839.83;;;19.50;99.90;;;;;;5054550;28;20454;-72
2023/09/12 07:01:40;;;;;;;860.60;806.93;;;19.50;99.90;;;;;;5054652;28;20456;-71
2023/09/12 07:04:07;;;;;;;904.87;846.07;;;19.70;99.90;;;;;;5054322;28;20546;-72
2023/09/12 07:06:33;;;;;;;939.00;874.83;;;19.80;99.90;;;;;;5054277;28;20963;-71
2023/09/12 07:09:00;;;;;;;795.63;746.13;;;20.00;99.90;;;;;;5054494;28;20455;-72
2023/09/12 07:11:28;;;;;;;749.83;706.13;;;20.20;99.90;;;;;;5054238;28;20464;-73
2023/09/12 07:13:55;;;;;;;698.80;662.33;;;20.30;99.90;;;;;;5054535;28;20514;-72
2023/09/12 07:16:22;;;;;;;603.60;577.43;;;20.50;99.90;;;;;;5054264;28;20937;-72
2023/09/12 07:18:50;;;;;;;611.80;584.23;;;20.50;99.90;;;;;;5053831;28;20450;-72
2023/09/12 07:21:17;;;;;;;565.53;541.63;;;20.50;99.90;;;;;;5054388;28;20450;-70
2023/09/12 07:23:44;;;;;;;557.93;534.60;;;20.60;99.90;;;;;;5054364;28;20458;-73
2023/09/12 07:26:13;;;;;;;501.07;481.10;;;20.60;99.90;;;;;;5054194;28;20819;-74
2023/09/12 07:28:42;;;;;;;527.83;505.02;;;20.70;99.90;;;;;;5052579;28;20502;-70
2023/09/12 07:31:09;;;;;;;436.33;419.73;;;20.80;99.90;;;;;;5053655;28;20213;-72
2023/09/12 07:33:35;;;;;;;558.07;535.07;;;20.90;99.90;;;;;;5053990;28;20462;-71
2023/09/12 07:36:03;;;;;;;403.80;388.67;;;21.00;99.90;;;;;;5054067;28;20449;-72
2023/09/12 07:38:30;;;;;;;521.87;501.40;;;21.10;99.90;;;;;;5053769;28;20508;-72
2023/09/12 07:40:58;;;;;;;412.50;397.13;;;21.20;99.90;;;;;;5053822;28;20458;-72
2023/09/12 07:43:25;;;;;;;250.80;242.33;;;21.30;99.90;;;;;;5053846;28;20458;-72
2023/09/12 07:45:57;;;;;;;302.90;292.60;;;21.30;99.90;;;;;;5053774;28;20454;-71
2023/09/12 07:48:24;;;;;;;254.40;245.87;;;21.50;99.90;;;;;;5053580;28;20476;-73
2023/09/12 07:50:51;;;;;;;112.07;107.63;;;21.70;99.90;;;;;;5053467;28;20448;-73
2023/09/12 07:53:18;;;;;;;77.97;74.87;;;21.70;99.90;;;;;;5053824;28;20457;-72
2023/09/12 07:55:46;;;;;;;97.60;94.03;;;21.70;99.90;;;;;;5053645;28;20504;-70
2023/09/12 07:58:14;;;;;;;168.43;162.33;;;21.60;99.90;;;;;;5053346;28;20496;-72
2023/09/12 08:00:41;;;;;;;82.80;79.27;;;21.80;99.90;;;;;;5053573;28;20458;-71
2023/09/12 08:03:09;;;;;;;116.40;111.90;;;21.80;99.90;;;;;;5053562;28;20453;-70
2023/09/12 08:05:36;;;;;;;59.03;56.50;;;22.00;99.90;;;;;;5053433;28;20555;-71
2023/09/12 08:08:03;;;;;;;39.53;37.03;;;22.00;99.90;;;;;;5053104;28;20484;-72
2023/09/12 08:10:30;;;;;;;60.30;56.90;;;22.00;99.90;;;;;;5052250;28;20524;-70
2023/09/12 08:12:57;;;;;;;25.87;23.90;;;22.20;99.90;;;;;;5053270;28;20545;-71
2023/09/12 08:15:24;;;;;;;41.90;39.53;;;22.00;99.90;;;;;;5053086;28;20946;-71
2023/09/12 08:17:53;;;;;;;35.03;32.43;;;22.20;99.90;;;;;;5053020;28;20942;-71
2023/09/12 08:20:21;;;;;;;19.43;17.73;;;22.60;99.90;;;;;;5052861;28;20553;-71
2023/09/12 08:22:48;;;;;;;19.60;17.90;;;22.60;99.90;;;;;;5053171;28;20582;-70
2023/09/12 08:25:15;;;;;;;16.00;14.30;;;22.80;99.90;;;;;;5053217;28;20477;-71
2023/09/12 08:27:43;;;;;;;17.23;14.73;;;22.90;99.90;;;;;;5053109;28;20501;-71
2023/09/12 08:30:12;;;;;;;17.97;12.40;;;23.00;99.90;;;;;;5053272;28;20542;-71
2023/09/12 08:32:43;;;;;;;15.53;13.53;;;22.90;99.90;;;;;;5052812;28;20516;-72
2023/09/12 08:35:10;;;;;;;14.60;13.10;;;22.90;99.90;;;;;;5053046;28;20478;-72
2023/09/12 08:37:38;;;;;;;14.30;12.80;;;23.00;99.90;;;;;;5052784;28;20453;-72
2023/09/12 08:40:08;;;;;;;14.93;12.33;;;23.20;99.90;;;;;;5052423;28;20451;-72
2023/09/12 08:42:41;;;;;;;18.50;12.20;;;23.30;99.90;;;;;;5052935;28;20454;-71
2023/09/12 08:45:13;;;;;;;14.87;10.83;;;23.60;99.90;;;;;;5052719;28;20447;-72
2023/09/12 08:47:42;;;;;;;10.87;7.70;;;23.60;99.90;;;;;;5052758;28;20809;-71
2023/09/12 08:50:12;;;;;;;8.77;4.73;;;23.70;99.90;;;;;;5052382;28;20451;-72
2023/09/12 08:52:41;;;;;;;6.80;4.23;;;23.50;99.90;;;;;;5052407;28;20456;-70
2023/09/12 08:55:08;;;;;;;9.37;5.70;;;23.70;99.90;;;;;;5052496;28;20942;-72
2023/09/12 08:57:38;;;;;;;7.83;6.27;;;24.20;99.90;;;;;;5052486;28;20443;-72
2023/09/12 09:00:08;;;;;;;10.20;6.60;;;24.20;99.90;;;;;;5052288;28;20450;-72
2023/09/12 09:02:38;;;;;;;8.97;6.50;;;24.20;99.90;;;;;;5052369;28;20860;-73
2023/09/12 09:05:06;;;;;;;12.20;7.23;;;24.20;99.90;;;;;;5052463;28;20813;-73
2023/09/12 09:07:35;;;;;;;10.00;7.07;;;24.40;99.90;;;;;;5052226;28;20559;-71
2023/09/12 09:10:05;;;;;;;10.80;7.10;;;24.70;99.90;;;;;;5052135;28;20482;-70
2023/09/12 09:12:32;;;;;;;13.37;6.23;;;24.40;99.90;;;;;;5052508;28;20447;-71
2023/09/12 09:14:59;;;;;;;10.80;6.53;;;24.30;99.90;;;;;;5052158;28;20458;-70
2023/09/12 09:17:27;;;;;;;10.07;4.83;;;24.20;98.80;;;;;;5052005;28;20454;-73
2023/09/12 09:19:55;;;;;;;7.60;4.07;;;24.00;96.80;;;;;;5051842;28;20447;-70
2023/09/12 09:22:22;;;;;;;8.70;5.57;;;24.00;98.30;;;;;;5052326;28;20447;-70
2023/09/12 09:24:51;;;;;;;8.40;4.80;;;23.90;99.90;;;;;;5052164;28;20454;-71
2023/09/12 09:27:34;;;;;;;5.97;2.20;;;24.20;99.90;;;;;;5052104;28;20798;-71
2023/09/12 09:30:03;;;;;;;8.70;2.03;;;24.50;94.70;;;;;;5051830;28;20455;-70
2023/09/12 09:32:30;;;;;;;5.23;2.10;;;24.90;92.80;;;;;;5052276;28;20876;-72
2023/09/12 09:34:57;;;;;;;5.77;2.47;;;24.80;85.10;;;;;;5052161;28;20816;-71
2023/09/12 09:37:24;;;;;;;6.83;3.03;;;24.80;82.50;;;;;;5052042;28;20458;-72
2023/09/12 09:39:52;;;;;;;5.90;2.50;;;24.90;90.50;;;;;;5051744;28;20454;-70
2023/09/12 09:42:19;;;;;;;8.43;4.23;;;24.90;90.20;;;;;;5051868;28;20457;-72
2023/09/12 09:44:49;;;;;;;7.50;3.70;;;25.10;90.20;;;;;;5051867;28;20504;-71
2023/09/12 09:47:18;;;;;;;6.97;3.20;;;25.40;90.30;;;;;;5051837;28;20451;-70
2023/09/12 09:49:47;;;;;;;9.00;4.90;;;25.30;83.40;;;;;;5051943;28;20449;-71
2023/09/12 09:52:13;;;;;;;11.53;5.60;;;25.80;87.30;;;;;;5052041;28;20443;-71
2023/09/12 09:54:44;;;;;;;11.90;6.80;;;25.60;75.10;;;;;;5051840;28;20959;-71
2023/09/12 09:57:11;;;;;;;12.20;8.40;;;25.60;75.00;;;;;;5050797;28;20449;-77
2023/09/12 09:59:38;;;;;;;13.50;9.80;;;25.60;75.10;;;;;;5051941;28;20199;-77
2023/09/12 10:02:13;;;;;;;11.30;7.50;;;26.00;75.30;;;;;;5052214;28;20542;-75
2023/09/12 10:04:41;;;;;;;14.83;8.60;;;26.10;72.20;;;;;;5051817;28;20451;-78
2023/09/12 10:07:08;;;;;;;16.37;10.10;;;26.10;75.30;;;;;;5052270;28;20489;-77
2023/09/12 10:09:36;;;;;;;12.87;9.60;;;26.20;75.40;;;;;;5051903;28;20475;-77
2023/09/12 10:12:03;;;;;;;12.13;6.83;;;26.50;75.60;;;;;;5052254;28;20460;-76
2023/09/12 10:14:31;;;;;;;15.37;8.83;;;26.50;65.80;;;;;;5052385;28;20457;-75
2023/09/12 10:17:02;;;;;;;14.50;10.03;;;26.60;67.60;;;;;;5052328;28;20501;-74
2023/09/12 10:19:36;;;;;;;12.10;6.77;;;26.80;68.50;;;;;;5051855;28;20429;-77
2023/09/12 10:22:10;;;;;;;15.10;9.03;;;26.50;59.00;;;;;;5052041;28;20453;-76
2023/09/12 10:24:37;;;;;;;15.83;11.70;;;26.70;65.60;;;;;;5052295;28;20462;-75
2023/09/12 10:27:06;;;;;;;14.07;8.77;;;26.90;65.40;;;;;;5051981;28;20455;-79
2023/09/12 10:29:34;;;;;;;14.60;11.00;;;26.20;62.40;;;;;;5051637;28;20465;-74
2023/09/12 10:32:01;;;;;;;20.30;15.10;;;26.00;67.10;;;;;;5052369;28;20461;-76
2023/09/12 10:34:29;;;;;;;17.80;11.93;;;25.90;75.20;;;;;;5055870;28;20449;-76
2023/09/12 10:36:59;;;;;;;13.37;9.70;;;26.00;67.10;;;;;;5055421;28;20576;-75
2023/09/12 10:39:28;;;;;;;21.20;12.20;;;26.00;67.10;;;;;;5054012;28;20467;-79
2023/09/12 10:41:56;;;;;;;16.17;11.40;;;25.70;67.00;;;;;;5034895;28;20452;-78
2023/09/12 10:44:24;;;;;;;20.30;15.33;;;25.90;67.00;;;;;;5035020;28;20460;-76
2023/09/12 10:46:53;;;;;;;21.20;14.87;;;25.90;73.00;;;;;;5034887;28;20459;-74
2023/09/12 10:49:20;;;;;;;19.90;13.70;;;26.10;72.00;;;;;;5016514;28;20841;-76
2023/09/12 10:51:48;;;;;;;17.93;11.60;;;26.50;69.40;;;;;;5016968;28;20872;-77
2023/09/12 10:54:24;;;;;;;12.20;6.20;;;26.90;59.20;;;;;;5034784;28;20454;-75
2023/09/12 10:57:04;;;;;;;16.77;12.70;;;26.60;61.60;;;;;;5033527;28;20457;-74
2023/09/12 10:59:35;;;;;;;18.27;11.50;;;26.90;60.20;;;;;;5034143;28;20200;-77
2023/09/12 11:02:29;;;;;;;15.53;10.57;;;26.70;63.70;;;;;;5035078;28;20455;-75
2023/09/12 11:04:56;;;;;;;15.47;11.07;;;26.60;60.10;;;;;;5034943;28;21088;-75
2023/09/12 11:07:46;;;;;;;14.60;10.10;;;26.80;64.90;;;;;;5035262;28;20535;-77
2023/09/12 11:10:22;;;;;;;16.43;11.70;;;27.00;59.30;;;;;;5034997;28;20501;-73
2023/09/12 11:12:50;;;;;;;14.30;10.30;;;27.70;59.80;;;;;;5035115;28;20478;-76
2023/09/12 11:15:17;;;;;;;14.73;11.87;;;27.60;59.70;;;;;;5035147;28;20448;-76
2023/09/12 11:17:45;;;;;;;13.57;9.80;;;27.80;56.70;;;;;;5035005;28;20448;-73
2023/09/12 11:20:13;;;;;;;14.03;10.80;;;27.90;59.80;;;;;;5034687;28;20454;-74
2023/09/12 11:22:41;;;;;;;15.60;10.33;;;27.90;51.10;;;;;;5034556;28;20433;-74
2023/09/12 11:25:18;;;;;;;13.00;9.03;;;28.10;51.20;;;;;;5034675;28;20438;-75
2023/09/12 11:28:05;;;;;;;13.37;8.53;;;28.40;42.40;;;;;;5034833;28;20423;-73
2023/09/12 11:30:32;;;;;;;10.87;8.37;;;29.00;40.40;;;;;;5034585;28;20936;-73
2023/09/12 11:32:59;;;;;;;12.57;9.63;;;29.70;34.00;;;;;;5034596;28;20425;-76
2023/09/12 11:35:28;;;;;;;13.03;8.80;;;29.30;33.70;;;;;;5034744;28;20419;-75
2023/09/12 11:37:57;;;;;;;12.83;9.47;;;29.10;33.60;;;;;;5034676;28;20807;-73
2023/09/12 11:40:25;;;;;;;13.53;9.90;;;28.60;34.30;;;;;;5034402;28;20535;-75
2023/09/12 11:42:54;;;;;;;11.87;8.87;;;28.30;38.70;;;;;;5034529;28;20444;-73
2023/09/12 11:45:21;;;;;;;14.10;8.67;;;28.40;38.90;;;;;;5034363;28;20455;-73
2023/09/12 11:47:49;;;;;;;15.00;10.13;;;28.00;39.60;;;;;;5034468;28;20483;-75
2023/09/12 11:50:32;;;;;;;12.80;8.97;;;27.50;41.70;;;;;;5033640;28;20453;-75
2023/09/12 11:53:01;;;;;;;11.53;8.10;;;27.10;41.50;;;;;;5033402;28;20459;-74
2023/09/12 11:55:30;;;;;;;10.57;7.90;;;26.70;41.20;;;;;;5033706;28;20451;-74
2023/09/12 11:57:58;;;;;;;18.07;9.60;;;27.10;38.00;;;;;;5033774;28;20494;-75
2023/09/12 12:00:26;;;;;;;12.40;8.87;;;28.00;37.40;;;;;;5033662;28;20423;-76
2023/09/12 12:02:53;;;;;;;16.43;10.70;;;28.90;33.50;;;;;;5033818;28;20789;-74
2023/09/12 12:05:20;;;;;;;16.00;10.60;;;29.50;33.80;;;;;;5033507;28;20448;-74
2023/09/12 12:07:48;;;;;;;14.83;10.80;;;29.40;30.00;;;;;;5033633;28;20448;-74
2023/09/12 12:10:15;;;;;;;15.03;11.83;;;29.20;25.70;;;;;;5032921;28;20542;-74
2023/09/12 12:12:45;;;;;;;16.17;13.40;;;29.30;26.20;;;;;;5032904;28;20483;-76
2023/09/12 12:15:14;;;;;;;14.90;12.73;;;29.20;33.70;;;;;;5033595;28;20469;-75
2023/09/12 12:17:42;;;;;;;13.50;10.80;;;29.50;30.00;;;;;;5033594;28;20452;-76
2023/09/12 12:20:10;;;;;;;17.00;13.10;;;29.60;25.80;;;;;;5032960;28;20506;-76